createdAt,value
2018-07-21T00:03:16.000Z,1002.932
2018-07-21T00:13:16.000Z,1002.906
2018-07-21T00:23:16.000Z,1002.834
2018-07-21T00:33:16.000Z,1002.599
2018-07-21T00:43:16.000Z,1002.559
2018-07-21T00:53:16.000Z,1002.581
2018-07-21T01:03:16.000Z,1002.445
2018-07-21T01:13:16.000Z,1002.306
2018-07-21T01:23:16.000Z,1002.267
2018-07-21T01:33:17.000Z,1002.496
2018-07-21T01:43:16.000Z,1002.785
2018-07-21T01:53:16.000Z,1002.983
2018-07-21T02:03:16.000Z,1002.969
2018-07-21T02:13:16.000Z,1002.934
2018-07-21T02:23:16.000Z,1002.832
2018-07-21T02:33:16.000Z,1002.761
2018-07-21T02:43:16.000Z,1002.698
2018-07-21T02:53:16.000Z,1002.537
2018-07-21T03:03:16.000Z,1002.469
2018-07-21T03:13:16.000Z,1002.388
2018-07-21T03:23:16.000Z,1002.377
2018-07-21T03:33:17.000Z,1002.393
2018-07-21T03:43:16.000Z,1002.42
2018-07-21T03:53:16.000Z,1002.332
2018-07-21T04:03:16.000Z,1002.309
2018-07-21T04:13:17.000Z,1002.337
2018-07-21T04:23:16.000Z,1002.351
2018-07-21T04:33:16.000Z,1002.5
2018-07-21T04:43:16.000Z,1002.49
2018-07-21T04:53:16.000Z,1002.521
2018-07-21T05:03:16.000Z,1002.578
2018-07-21T05:13:16.000Z,1002.552
2018-07-21T05:23:16.000Z,1002.465
2018-07-21T05:33:16.000Z,1002.508
2018-07-21T05:43:16.000Z,1002.628
2018-07-21T05:53:16.000Z,1002.681
2018-07-21T06:03:16.000Z,1002.801
2018-07-21T06:13:16.000Z,1003.018
2018-07-21T06:23:16.000Z,1002.974
2018-07-21T06:33:16.000Z,1003.072
2018-07-21T06:43:16.000Z,1003.185
2018-07-21T06:53:16.000Z,1003.323
2018-07-21T07:03:16.000Z,1003.363
2018-07-21T07:13:16.000Z,1003.41
2018-07-21T07:23:16.000Z,1003.387
2018-07-21T07:33:16.000Z,1003.348
2018-07-21T07:43:16.000Z,1003.354
2018-07-21T07:53:17.000Z,1003.389
2018-07-21T08:03:17.000Z,1003.395
2018-07-21T08:13:17.000Z,1003.444
2018-07-21T08:23:17.000Z,1003.48
2018-07-21T08:33:17.000Z,1003.521
2018-07-21T08:43:17.000Z,1003.499
2018-07-21T08:53:17.000Z,1003.435
2018-07-21T09:03:17.000Z,1003.415
2018-07-21T09:13:17.000Z,1003.373
2018-07-21T09:23:17.000Z,1003.416
2018-07-21T09:33:17.000Z,1003.47
2018-07-21T09:43:17.000Z,1003.562
2018-07-21T09:53:17.000Z,1003.491
2018-07-21T10:03:18.000Z,1003.46
2018-07-21T10:13:17.000Z,1003.481
2018-07-21T10:23:17.000Z,1003.465
2018-07-21T10:33:17.000Z,1003.605
2018-07-21T10:43:17.000Z,1003.568
2018-07-21T11:03:17.000Z,1003.522
2018-07-21T11:13:17.000Z,1003.54
2018-07-21T11:23:17.000Z,1003.431
2018-07-21T11:33:17.000Z,1003.389
2018-07-21T11:43:17.000Z,1003.385
2018-07-21T11:53:17.000Z,1003.394
2018-07-21T12:03:17.000Z,1003.385
2018-07-21T12:13:17.000Z,1003.374
2018-07-21T12:23:17.000Z,1003.331
2018-07-21T12:33:17.000Z,1003.309
2018-07-21T12:43:17.000Z,1003.212
2018-07-21T12:53:17.000Z,1003.178
2018-07-21T13:03:17.000Z,1003.071
2018-07-21T13:13:17.000Z,1003.088
2018-07-21T13:23:17.000Z,1003.083
2018-07-21T13:33:17.000Z,1003.063
2018-07-21T13:43:17.000Z,1003.03
2018-07-21T13:53:17.000Z,1003.012
2018-07-21T14:03:17.000Z,1002.987
2018-07-21T14:13:17.000Z,1002.936
2018-07-21T14:23:17.000Z,1002.917
2018-07-21T14:33:17.000Z,1002.902
2018-07-21T14:43:17.000Z,1002.951
2018-07-21T14:53:17.000Z,1002.976
2018-07-21T15:03:17.000Z,1002.956
2018-07-21T15:13:17.000Z,1002.897
2018-07-21T15:23:17.000Z,1002.966
2018-07-21T15:33:17.000Z,1003.039
2018-07-21T15:43:17.000Z,1003.224
2018-07-21T15:53:17.000Z,1003.4
2018-07-21T16:03:17.000Z,1003.56
2018-07-21T16:13:17.000Z,1003.783
2018-07-21T16:23:18.000Z,1003.851
2018-07-21T16:33:18.000Z,1003.671
2018-07-21T16:43:18.000Z,1003.518
2018-07-21T16:53:18.000Z,1003.342
2018-07-21T17:03:18.000Z,1003.403
2018-07-21T17:13:18.000Z,1003.492
2018-07-21T17:23:18.000Z,1003.448
2018-07-21T17:33:18.000Z,1003.332
2018-07-21T17:43:18.000Z,1003.285
2018-07-21T17:53:18.000Z,1003.284
2018-07-21T18:03:18.000Z,1003.384
2018-07-21T18:13:18.000Z,1003.298
2018-07-21T18:23:18.000Z,1003.39
2018-07-21T18:33:18.000Z,1003.363
2018-07-21T18:43:18.000Z,1003.449
2018-07-21T18:53:18.000Z,1003.497
2018-07-21T19:03:18.000Z,1003.553
2018-07-21T19:13:18.000Z,1003.551
2018-07-21T19:23:18.000Z,1003.559
2018-07-21T19:33:18.000Z,1003.668
2018-07-21T19:43:18.000Z,1003.757
2018-07-21T19:53:18.000Z,1003.894
2018-07-21T20:03:18.000Z,1003.965
2018-07-21T20:13:18.000Z,1004.103
2018-07-21T20:23:18.000Z,1004.242
2018-07-21T20:33:18.000Z,1004.246
2018-07-21T20:43:19.000Z,1004.231
2018-07-21T20:53:18.000Z,1004.224
2018-07-21T21:03:18.000Z,1004.249
2018-07-21T21:13:18.000Z,1004.165
2018-07-21T21:23:20.000Z,1004.103
2018-07-21T21:33:18.000Z,1004.04
2018-07-21T21:43:18.000Z,1004.065
2018-07-21T21:53:18.000Z,1004.143
2018-07-21T22:03:18.000Z,1004.104
2018-07-21T22:13:18.000Z,1004.098
2018-07-21T22:23:18.000Z,1004.143
2018-07-21T22:33:19.000Z,1004.227
2018-07-21T22:43:18.000Z,1004.326
2018-07-21T22:53:18.000Z,1004.417
2018-07-21T23:03:18.000Z,1004.52
2018-07-21T23:13:18.000Z,1004.548
2018-07-21T23:23:18.000Z,1004.577
2018-07-21T23:33:19.000Z,1004.582
2018-07-21T23:43:18.000Z,1004.599
2018-07-21T23:53:18.000Z,1004.588
